Nossville, Pennsylvania
Current Conditions -  °F | °C
As of 10:53 PM on Wednesday 17 Dec 2014 (Local Time) from KAOO Reporting Station
Overcast Overcast  
Wind Chill: 19°   Ceiling: 3200
Heat Index: 31°   Visibility: 10mi
Dew Point: 20°   Wind: 17mph
Humidity: 64%   Direction: 300°WNW
Pressure: 30.03"   Gusts: 30mph
Location:  40.2561°N, 77.7747°W
Report Text: KAOO 180353Z AUTO 30015G26KT 10SM OVC032 M01/M07 A3003 RMK AO2 PK WND 28026/0350 SNE01 SLP181 P0000 T10061067
Loading
Personal Weather Stations






























Interactive Weather Map New forecast layout! Learn more

10-Day Weather Forecast

Advertisements
Track Severe Weather on mobile